sensor_id;sensor_type;location;lat;lon;timestamp;temperature;humidity
80695;DHT22;70059;42.702;23.312;2024-02-21T00:00:18;8.30;65.60
80695;DHT22;70059;42.702;23.312;2024-02-21T00:02:45;8.40;65.40
80695;DHT22;70059;42.702;23.312;2024-02-21T00:05:11;8.30;65.20
80695;DHT22;70059;42.702;23.312;2024-02-21T00:07:36;8.20;65.70
80695;DHT22;70059;42.702;23.312;2024-02-21T00:10:02;8.30;65.30
80695;DHT22;70059;42.702;23.312;2024-02-21T00:12:28;8.30;65.10
80695;DHT22;70059;42.702;23.312;2024-02-21T00:14:54;8.30;65.00
80695;DHT22;70059;42.702;23.312;2024-02-21T00:17:20;8.40;65.00
80695;DHT22;70059;42.702;23.312;2024-02-21T00:19:45;8.30;64.80
80695;DHT22;70059;42.702;23.312;2024-02-21T00:22:11;8.20;65.70
80695;DHT22;70059;42.702;23.312;2024-02-21T00:24:37;8.10;66.10
80695;DHT22;70059;42.702;23.312;2024-02-21T00:27:02;8.00;66.00
80695;DHT22;70059;42.702;23.312;2024-02-21T00:29:28;8.00;66.60
80695;DHT22;70059;42.702;23.312;2024-02-21T00:31:54;7.90;66.40
80695;DHT22;70059;42.702;23.312;2024-02-21T00:34:19;7.90;66.50
80695;DHT22;70059;42.702;23.312;2024-02-21T00:36:45;8.00;68.10
80695;DHT22;70059;42.702;23.312;2024-02-21T00:39:11;8.00;66.50
80695;DHT22;70059;42.702;23.312;2024-02-21T00:41:36;8.10;66.30
80695;DHT22;70059;42.702;23.312;2024-02-21T00:44:02;8.20;66.20
80695;DHT22;70059;42.702;23.312;2024-02-21T00:46:31;8.20;65.40
80695;DHT22;70059;42.702;23.312;2024-02-21T00:48:56;8.30;65.90
80695;DHT22;70059;42.702;23.312;2024-02-21T00:51:22;8.40;65.00
80695;DHT22;70059;42.702;23.312;2024-02-21T00:53:47;8.40;64.90
80695;DHT22;70059;42.702;23.312;2024-02-21T00:56:13;8.40;65.00
80695;DHT22;70059;42.702;23.312;2024-02-21T00:58:39;8.30;64.90
80695;DHT22;70059;42.702;23.312;2024-02-21T01:01:04;8.20;65.70
80695;DHT22;70059;42.702;23.312;2024-02-21T01:03:30;8.00;66.10
80695;DHT22;70059;42.702;23.312;2024-02-21T01:05:56;8.20;65.80
80695;DHT22;70059;42.702;23.312;2024-02-21T01:08:21;8.30;65.60
80695;DHT22;70059;42.702;23.312;2024-02-21T01:10:47;8.30;65.40
80695;DHT22;70059;42.702;23.312;2024-02-21T01:13:13;8.40;65.30
80695;DHT22;70059;42.702;23.312;2024-02-21T01:15:38;8.40;65.00
80695;DHT22;70059;42.702;23.312;2024-02-21T01:18:04;8.50;65.30
80695;DHT22;70059;42.702;23.312;2024-02-21T01:20:30;8.60;64.80
80695;DHT22;70059;42.702;23.312;2024-02-21T01:23:02;8.60;64.30
80695;DHT22;70059;42.702;23.312;2024-02-21T01:25:28;8.60;64.40
80695;DHT22;70059;42.702;23.312;2024-02-21T01:27:53;8.60;64.70
80695;DHT22;70059;42.702;23.312;2024-02-21T01:30:19;8.50;64.50
80695;DHT22;70059;42.702;23.312;2024-02-21T01:32:51;8.60;64.40
80695;DHT22;70059;42.702;23.312;2024-02-21T01:35:16;8.60;64.50
80695;DHT22;70059;42.702;23.312;2024-02-21T01:37:43;8.60;64.40
80695;DHT22;70059;42.702;23.312;2024-02-21T01:40:09;8.70;64.70
80695;DHT22;70059;42.702;23.312;2024-02-21T01:42:39;8.70;64.00
80695;DHT22;70059;42.702;23.312;2024-02-21T01:45:06;8.70;63.80
80695;DHT22;70059;42.702;23.312;2024-02-21T01:47:32;8.60;63.90
80695;DHT22;70059;42.702;23.312;2024-02-21T01:49:57;8.60;63.70
80695;DHT22;70059;42.702;23.312;2024-02-21T01:52:23;8.60;63.80
80695;DHT22;70059;42.702;23.312;2024-02-21T01:54:49;8.50;64.20
80695;DHT22;70059;42.702;23.312;2024-02-21T01:57:15;8.40;64.30
80695;DHT22;70059;42.702;23.312;2024-02-21T01:59:41;8.50;64.40
80695;DHT22;70059;42.702;23.312;2024-02-21T02:02:06;8.50;64.00
80695;DHT22;70059;42.702;23.312;2024-02-21T02:04:32;8.50;64.00
80695;DHT22;70059;42.702;23.312;2024-02-21T02:07:00;8.60;63.60
80695;DHT22;70059;42.702;23.312;2024-02-21T02:09:28;8.60;63.50
80695;DHT22;70059;42.702;23.312;2024-02-21T02:11:53;8.50;63.40
80695;DHT22;70059;42.702;23.312;2024-02-21T02:14:19;8.50;63.50
80695;DHT22;70059;42.702;23.312;2024-02-21T02:16:48;8.40;63.40
80695;DHT22;70059;42.702;23.312;2024-02-21T02:19:13;8.30;63.80
80695;DHT22;70059;42.702;23.312;2024-02-21T02:21:51;8.30;64.10
80695;DHT22;70059;42.702;23.312;2024-02-21T02:24:24;8.20;64.60
80695;DHT22;70059;42.702;23.312;2024-02-21T02:26:53;8.20;64.30
80695;DHT22;70059;42.702;23.312;2024-02-21T02:29:18;8.30;64.80
80695;DHT22;70059;42.702;23.312;2024-02-21T02:31:44;8.30;64.70
80695;DHT22;70059;42.702;23.312;2024-02-21T02:34:10;8.30;65.60
80695;DHT22;70059;42.702;23.312;2024-02-21T02:36:36;8.30;64.70
80695;DHT22;70059;42.702;23.312;2024-02-21T02:39:01;8.30;64.30
80695;DHT22;70059;42.702;23.312;2024-02-21T02:41:27;8.40;66.20
80695;DHT22;70059;42.702;23.312;2024-02-21T02:43:53;8.40;64.40
80695;DHT22;70059;42.702;23.312;2024-02-21T02:46:18;8.30;64.20
80695;DHT22;70059;42.702;23.312;2024-02-21T02:48:44;8.20;64.90
80695;DHT22;70059;42.702;23.312;2024-02-21T02:51:10;8.20;65.20
80695;DHT22;70059;42.702;23.312;2024-02-21T02:53:36;8.30;64.80
80695;DHT22;70059;42.702;23.312;2024-02-21T02:56:02;8.30;64.70
80695;DHT22;70059;42.702;23.312;2024-02-21T02:58:34;8.40;64.30
80695;DHT22;70059;42.702;23.312;2024-02-21T03:01:00;8.50;64.20
80695;DHT22;70059;42.702;23.312;2024-02-21T03:03:27;8.50;63.70
80695;DHT22;70059;42.702;23.312;2024-02-21T03:05:53;8.60;63.30
80695;DHT22;70059;42.702;23.312;2024-02-21T03:08:25;8.70;63.30
80695;DHT22;70059;42.702;23.312;2024-02-21T03:10:51;8.70;63.10
80695;DHT22;70059;42.702;23.312;2024-02-21T03:13:17;8.60;63.10
80695;DHT22;70059;42.702;23.312;2024-02-21T03:15:42;8.60;63.10
80695;DHT22;70059;42.702;23.312;2024-02-21T03:18:08;8.60;63.20
80695;DHT22;70059;42.702;23.312;2024-02-21T03:20:33;8.60;63.40
80695;DHT22;70059;42.702;23.312;2024-02-21T03:22:59;8.70;62.90
80695;DHT22;70059;42.702;23.312;2024-02-21T03:25:24;8.80;62.60
80695;DHT22;70059;42.702;23.312;2024-02-21T03:27:50;8.80;62.30
80695;DHT22;70059;42.702;23.312;2024-02-21T03:30:17;8.80;62.50
80695;DHT22;70059;42.702;23.312;2024-02-21T03:32:42;8.80;62.60
80695;DHT22;70059;42.702;23.312;2024-02-21T03:35:08;8.90;62.60
80695;DHT22;70059;42.702;23.312;2024-02-21T03:37:34;8.90;62.30
80695;DHT22;70059;42.702;23.312;2024-02-21T03:40:00;8.90;61.80
80695;DHT22;70059;42.702;23.312;2024-02-21T03:42:26;8.90;62.20
80695;DHT22;70059;42.702;23.312;2024-02-21T03:44:51;9.00;62.00
80695;DHT22;70059;42.702;23.312;2024-02-21T03:47:17;9.10;61.50
80695;DHT22;70059;42.702;23.312;2024-02-21T03:49:42;9.00;61.50
80695;DHT22;70059;42.702;23.312;2024-02-21T03:52:08;9.00;61.10
80695;DHT22;70059;42.702;23.312;2024-02-21T03:54:41;9.00;61.20
80695;DHT22;70059;42.702;23.312;2024-02-21T03:57:07;8.80;61.50
80695;DHT22;70059;42.702;23.312;2024-02-21T03:59:32;8.80;61.60
80695;DHT22;70059;42.702;23.312;2024-02-21T04:01:58;8.70;61.50
80695;DHT22;70059;42.702;23.312;2024-02-21T04:04:24;8.70;61.70
80695;DHT22;70059;42.702;23.312;2024-02-21T04:06:50;8.70;61.70
80695;DHT22;70059;42.702;23.312;2024-02-21T04:09:16;8.80;61.90
80695;DHT22;70059;42.702;23.312;2024-02-21T04:11:42;8.70;61.70
80695;DHT22;70059;42.702;23.312;2024-02-21T04:14:08;8.70;61.70
80695;DHT22;70059;42.702;23.312;2024-02-21T04:16:34;8.70;62.00
80695;DHT22;70059;42.702;23.312;2024-02-21T04:19:00;8.60;62.20
80695;DHT22;70059;42.702;23.312;2024-02-21T04:21:27;8.60;62.20
80695;DHT22;70059;42.702;23.312;2024-02-21T04:23:53;8.60;62.10
80695;DHT22;70059;42.702;23.312;2024-02-21T04:26:18;8.50;62.40
80695;DHT22;70059;42.702;23.312;2024-02-21T04:28:45;8.50;62.50
80695;DHT22;70059;42.702;23.312;2024-02-21T04:31:11;9.10;59.50
80695;DHT22;70059;42.702;23.312;2024-02-21T04:33:36;9.00;59.80
80695;DHT22;70059;42.702;23.312;2024-02-21T04:36:02;8.60;61.30
80695;DHT22;70059;42.702;23.312;2024-02-21T04:38:28;8.20;62.90
80695;DHT22;70059;42.702;23.312;2024-02-21T04:40:55;8.00;63.80
80695;DHT22;70059;42.702;23.312;2024-02-21T04:43:21;7.90;64.80
80695;DHT22;70059;42.702;23.312;2024-02-21T04:45:46;7.80;65.20
80695;DHT22;70059;42.702;23.312;2024-02-21T04:48:12;7.70;65.50
80695;DHT22;70059;42.702;23.312;2024-02-21T04:50:37;7.60;66.00
80695;DHT22;70059;42.702;23.312;2024-02-21T04:53:09;7.50;66.70
80695;DHT22;70059;42.702;23.312;2024-02-21T04:55:35;7.20;67.80
80695;DHT22;70059;42.702;23.312;2024-02-21T04:58:00;7.00;68.70
80695;DHT22;70059;42.702;23.312;2024-02-21T05:00:27;6.90;70.70
80695;DHT22;70059;42.702;23.312;2024-02-21T05:02:53;6.90;69.70
80695;DHT22;70059;42.702;23.312;2024-02-21T05:05:19;6.90;69.80
80695;DHT22;70059;42.702;23.312;2024-02-21T05:07:44;6.90;69.70
80695;DHT22;70059;42.702;23.312;2024-02-21T05:10:10;7.10;69.70
80695;DHT22;70059;42.702;23.312;2024-02-21T05:12:36;7.20;69.40
80695;DHT22;70059;42.702;23.312;2024-02-21T05:15:03;7.30;69.10
80695;DHT22;70059;42.702;23.312;2024-02-21T05:17:28;7.40;68.70
80695;DHT22;70059;42.702;23.312;2024-02-21T05:19:54;7.50;68.50
80695;DHT22;70059;42.702;23.312;2024-02-21T05:22:26;7.60;67.20
80695;DHT22;70059;42.702;23.312;2024-02-21T05:24:52;7.70;67.20
80695;DHT22;70059;42.702;23.312;2024-02-21T05:27:18;7.80;67.20
80695;DHT22;70059;42.702;23.312;2024-02-21T05:29:46;7.80;66.70
80695;DHT22;70059;42.702;23.312;2024-02-21T05:32:12;7.90;66.00
80695;DHT22;70059;42.702;23.312;2024-02-21T05:34:38;7.90;66.00
80695;DHT22;70059;42.702;23.312;2024-02-21T05:39:51;7.30;68.90
80695;DHT22;70059;42.702;23.312;2024-02-21T05:42:17;7.00;69.80
80695;DHT22;70059;42.702;23.312;2024-02-21T05:44:43;7.10;70.00
80695;DHT22;70059;42.702;23.312;2024-02-21T05:47:08;7.20;69.40
80695;DHT22;70059;42.702;23.312;2024-02-21T05:49:36;7.20;68.80
80695;DHT22;70059;42.702;23.312;2024-02-21T05:52:05;7.30;68.30
80695;DHT22;70059;42.702;23.312;2024-02-21T05:54:32;7.30;69.10
80695;DHT22;70059;42.702;23.312;2024-02-21T05:56:58;7.30;69.90
80695;DHT22;70059;42.702;23.312;2024-02-21T05:59:24;7.30;68.80
80695;DHT22;70059;42.702;23.312;2024-02-21T06:01:57;7.30;68.50
80695;DHT22;70059;42.702;23.312;2024-02-21T06:04:23;7.40;68.10
80695;DHT22;70059;42.702;23.312;2024-02-21T06:06:49;7.40;68.10
80695;DHT22;70059;42.702;23.312;2024-02-21T06:09:17;7.40;68.00
80695;DHT22;70059;42.702;23.312;2024-02-21T06:11:43;7.60;67.50
80695;DHT22;70059;42.702;23.312;2024-02-21T06:14:08;7.70;65.80
80695;DHT22;70059;42.702;23.312;2024-02-21T06:16:37;7.90;65.80
80695;DHT22;70059;42.702;23.312;2024-02-21T06:19:04;8.20;64.40
80695;DHT22;70059;42.702;23.312;2024-02-21T06:21:30;8.40;63.40
80695;DHT22;70059;42.702;23.312;2024-02-21T06:23:56;8.60;62.50
80695;DHT22;70059;42.702;23.312;2024-02-21T06:26:24;8.70;61.70
80695;DHT22;70059;42.702;23.312;2024-02-21T06:28:52;8.90;61.30
80695;DHT22;70059;42.702;23.312;2024-02-21T06:31:18;9.10;60.00
80695;DHT22;70059;42.702;23.312;2024-02-21T06:33:46;9.10;60.50
80695;DHT22;70059;42.702;23.312;2024-02-21T06:36:12;9.00;60.70
80695;DHT22;70059;42.702;23.312;2024-02-21T06:38:38;9.00;60.60
80695;DHT22;70059;42.702;23.312;2024-02-21T06:41:05;9.20;60.40
80695;DHT22;70059;42.702;23.312;2024-02-21T06:43:32;9.30;60.00
80695;DHT22;70059;42.702;23.312;2024-02-21T06:45:58;9.60;58.70
80695;DHT22;70059;42.702;23.312;2024-02-21T06:51:44;10.40;55.00
80695;DHT22;70059;42.702;23.312;2024-02-21T06:54:10;10.60;54.20
80695;DHT22;70059;42.702;23.312;2024-02-21T06:57:08;10.80;53.80
80695;DHT22;70059;42.702;23.312;2024-02-21T07:00:02;11.10;52.60
80695;DHT22;70059;42.702;23.312;2024-02-21T07:05:46;11.40;51.60
80695;DHT22;70059;42.702;23.312;2024-02-21T07:08:12;11.60;51.40
80695;DHT22;70059;42.702;23.312;2024-02-21T07:10:39;11.60;50.80
80695;DHT22;70059;42.702;23.312;2024-02-21T07:13:05;11.50;51.10
80695;DHT22;70059;42.702;23.312;2024-02-21T07:15:31;11.50;51.30
80695;DHT22;70059;42.702;23.312;2024-02-21T07:17:57;11.50;51.60
80695;DHT22;70059;42.702;23.312;2024-02-21T07:20:23;11.40;51.70
80695;DHT22;70059;42.702;23.312;2024-02-21T07:22:50;11.30;52.30
80695;DHT22;70059;42.702;23.312;2024-02-21T07:25:16;11.20;52.30
80695;DHT22;70059;42.702;23.312;2024-02-21T07:27:43;11.00;52.70
80695;DHT22;70059;42.702;23.312;2024-02-21T07:30:10;10.80;53.30
80695;DHT22;70059;42.702;23.312;2024-02-21T07:32:36;10.70;53.90
80695;DHT22;70059;42.702;23.312;2024-02-21T07:35:02;10.70;54.20
80695;DHT22;70059;42.702;23.312;2024-02-21T07:37:28;10.80;53.70
80695;DHT22;70059;42.702;23.312;2024-02-21T07:39:54;10.90;53.70
80695;DHT22;70059;42.702;23.312;2024-02-21T07:42:19;10.90;53.30
80695;DHT22;70059;42.702;23.312;2024-02-21T07:44:45;11.00;53.40
80695;DHT22;70059;42.702;23.312;2024-02-21T07:47:11;11.00;53.00
80695;DHT22;70059;42.702;23.312;2024-02-21T07:49:46;11.10;52.70
80695;DHT22;70059;42.702;23.312;2024-02-21T07:52:13;11.10;53.10
80695;DHT22;70059;42.702;23.312;2024-02-21T07:54:38;11.20;53.30
80695;DHT22;70059;42.702;23.312;2024-02-21T07:57:05;11.30;53.00
80695;DHT22;70059;42.702;23.312;2024-02-21T07:59:31;11.70;52.10
80695;DHT22;70059;42.702;23.312;2024-02-21T08:01:57;12.10;51.00
80695;DHT22;70059;42.702;23.312;2024-02-21T08:04:25;12.30;50.00
80695;DHT22;70059;42.702;23.312;2024-02-21T08:07:04;12.50;49.10
80695;DHT22;70059;42.702;23.312;2024-02-21T08:09:30;12.90;48.60
80695;DHT22;70059;42.702;23.312;2024-02-21T08:11:55;13.10;47.50
80695;DHT22;70059;42.702;23.312;2024-02-21T08:14:22;13.30;47.40
80695;DHT22;70059;42.702;23.312;2024-02-21T08:16:48;13.40;46.00
80695;DHT22;70059;42.702;23.312;2024-02-21T08:19:14;13.60;45.70
80695;DHT22;70059;42.702;23.312;2024-02-21T08:21:40;13.80;45.50
80695;DHT22;70059;42.702;23.312;2024-02-21T08:24:08;14.10;45.00
80695;DHT22;70059;42.702;23.312;2024-02-21T08:26:34;14.40;43.20
80695;DHT22;70059;42.702;23.312;2024-02-21T08:29:01;14.60;42.60
80695;DHT22;70059;42.702;23.312;2024-02-21T08:31:27;14.70;42.30
80695;DHT22;70059;42.702;23.312;2024-02-21T08:34:00;14.80;41.90
80695;DHT22;70059;42.702;23.312;2024-02-21T08:36:32;14.90;41.80
80695;DHT22;70059;42.702;23.312;2024-02-21T08:38:58;15.40;41.30
80695;DHT22;70059;42.702;23.312;2024-02-21T08:41:24;15.70;40.20
80695;DHT22;70059;42.702;23.312;2024-02-21T08:43:59;16.30;38.80
80695;DHT22;70059;42.702;23.312;2024-02-21T08:46:25;16.70;38.00
80695;DHT22;70059;42.702;23.312;2024-02-21T08:48:51;16.80;37.20
80695;DHT22;70059;42.702;23.312;2024-02-21T08:51:17;16.70;37.10
80695;DHT22;70059;42.702;23.312;2024-02-21T08:54:03;16.60;36.90
80695;DHT22;70059;42.702;23.312;2024-02-21T08:56:30;17.10;36.70
80695;DHT22;70059;42.702;23.312;2024-02-21T08:58:57;17.30;36.50
80695;DHT22;70059;42.702;23.312;2024-02-21T09:01:30;17.40;36.30
80695;DHT22;70059;42.702;23.312;2024-02-21T09:03:57;17.50;35.20
80695;DHT22;70059;42.702;23.312;2024-02-21T09:06:23;17.50;35.90
80695;DHT22;70059;42.702;23.312;2024-02-21T09:08:56;17.80;34.10
80695;DHT22;70059;42.702;23.312;2024-02-21T09:11:21;17.60;34.30
80695;DHT22;70059;42.702;23.312;2024-02-21T09:13:47;17.60;34.00
80695;DHT22;70059;42.702;23.312;2024-02-21T09:16:19;17.80;33.80
80695;DHT22;70059;42.702;23.312;2024-02-21T09:18:44;17.70;34.10
80695;DHT22;70059;42.702;23.312;2024-02-21T09:21:16;17.60;33.80
80695;DHT22;70059;42.702;23.312;2024-02-21T09:27:25;17.50;33.70
80695;DHT22;70059;42.702;23.312;2024-02-21T09:29:53;18.00;33.10
80695;DHT22;70059;42.702;23.312;2024-02-21T09:32:24;18.10;32.90
80695;DHT22;70059;42.702;23.312;2024-02-21T09:34:49;18.80;32.00
80695;DHT22;70059;42.702;23.312;2024-02-21T09:37:15;20.10;29.30
80695;DHT22;70059;42.702;23.312;2024-02-21T09:39:41;21.40;27.00
80695;DHT22;70059;42.702;23.312;2024-02-21T09:42:11;21.90;26.40
80695;DHT22;70059;42.702;23.312;2024-02-21T09:44:38;22.10;25.80
80695;DHT22;70059;42.702;23.312;2024-02-21T09:47:58;21.90;25.90
80695;DHT22;70059;42.702;23.312;2024-02-21T09:50:04;20.30;27.20
80695;DHT22;70059;42.702;23.312;2024-02-21T09:52:37;19.90;28.50
80695;DHT22;70059;42.702;23.312;2024-02-21T09:55:04;20.00;28.60
80695;DHT22;70059;42.702;23.312;2024-02-21T09:57:31;20.50;27.90
80695;DHT22;70059;42.702;23.312;2024-02-21T10:03:23;20.90;27.00
80695;DHT22;70059;42.702;23.312;2024-02-21T10:05:53;21.00;27.40
80695;DHT22;70059;42.702;23.312;2024-02-21T10:08:23;23.30;24.30
80695;DHT22;70059;42.702;23.312;2024-02-21T10:10:49;25.30;21.20
80695;DHT22;70059;42.702;23.312;2024-02-21T10:13:28;27.10;19.40
80695;DHT22;70059;42.702;23.312;2024-02-21T10:16:08;26.60;19.50
80695;DHT22;70059;42.702;23.312;2024-02-21T10:18:34;27.20;18.90
80695;DHT22;70059;42.702;23.312;2024-02-21T10:21:03;27.70;18.40
80695;DHT22;70059;42.702;23.312;2024-02-21T10:23:52;27.90;17.80
80695;DHT22;70059;42.702;23.312;2024-02-21T10:26:19;27.80;17.70
80695;DHT22;70059;42.702;23.312;2024-02-21T10:28:47;26.80;18.30
80695;DHT22;70059;42.702;23.312;2024-02-21T10:31:25;26.40;18.70
80695;DHT22;70059;42.702;23.312;2024-02-21T10:34:01;26.50;19.10
80695;DHT22;70059;42.702;23.312;2024-02-21T10:36:29;26.10;18.90
80695;DHT22;70059;42.702;23.312;2024-02-21T10:38:55;26.80;18.50
80695;DHT22;70059;42.702;23.312;2024-02-21T10:41:22;26.30;18.60
80695;DHT22;70059;42.702;23.312;2024-02-21T10:43:53;28.00;17.70
80695;DHT22;70059;42.702;23.312;2024-02-21T10:46:19;29.50;16.40
80695;DHT22;70059;42.702;23.312;2024-02-21T10:49:15;30.20;15.40
80695;DHT22;70059;42.702;23.312;2024-02-21T10:51:45;29.30;15.90
80695;DHT22;70059;42.702;23.312;2024-02-21T10:54:39;29.50;15.50
80695;DHT22;70059;42.702;23.312;2024-02-21T10:57:07;28.90;15.90
80695;DHT22;70059;42.702;23.312;2024-02-21T10:59:35;27.70;16.60
80695;DHT22;70059;42.702;23.312;2024-02-21T11:02:03;27.40;16.80
80695;DHT22;70059;42.702;23.312;2024-02-21T11:04:37;27.70;17.20
80695;DHT22;70059;42.702;23.312;2024-02-21T11:07:15;29.20;16.10
80695;DHT22;70059;42.702;23.312;2024-02-21T11:09:53;28.30;15.70
80695;DHT22;70059;42.702;23.312;2024-02-21T11:12:25;27.80;16.10
80695;DHT22;70059;42.702;23.312;2024-02-21T11:20:37;31.00;13.40
80695;DHT22;70059;42.702;23.312;2024-02-21T11:23:03;31.90;12.70
80695;DHT22;70059;42.702;23.312;2024-02-21T11:25:29;32.30;12.20
80695;DHT22;70059;42.702;23.312;2024-02-21T11:28:25;27.90;14.00
80695;DHT22;70059;42.702;23.312;2024-02-21T11:31:04;22.40;20.20
80695;DHT22;70059;42.702;23.312;2024-02-21T11:36:54;20.60;23.30
80695;DHT22;70059;42.702;23.312;2024-02-21T11:39:25;20.70;23.50
80695;DHT22;70059;42.702;23.312;2024-02-21T11:42:04;20.60;23.50
80695;DHT22;70059;42.702;23.312;2024-02-21T11:44:31;20.50;24.20
80695;DHT22;70059;42.702;23.312;2024-02-21T11:46:58;20.20;24.50
80695;DHT22;70059;42.702;23.312;2024-02-21T11:49:30;19.20;25.30
80695;DHT22;70059;42.702;23.312;2024-02-21T11:52:00;18.40;26.50
80695;DHT22;70059;42.702;23.312;2024-02-21T11:54:27;17.00;28.60
80695;DHT22;70059;42.702;23.312;2024-02-21T11:56:53;17.10;29.30
80695;DHT22;70059;42.702;23.312;2024-02-21T11:59:20;17.20;29.40
80695;DHT22;70059;42.702;23.312;2024-02-21T12:01:47;17.30;29.10
80695;DHT22;70059;42.702;23.312;2024-02-21T12:04:13;17.40;29.00
80695;DHT22;70059;42.702;23.312;2024-02-21T12:06:39;17.40;28.90
80695;DHT22;70059;42.702;23.312;2024-02-21T12:09:08;17.20;29.20
80695;DHT22;70059;42.702;23.312;2024-02-21T12:11:38;16.90;29.60
80695;DHT22;70059;42.702;23.312;2024-02-21T12:14:04;16.70;30.00
80695;DHT22;70059;42.702;23.312;2024-02-21T12:16:35;16.50;31.20
80695;DHT22;70059;42.702;23.312;2024-02-21T12:19:05;16.20;31.30
80695;DHT22;70059;42.702;23.312;2024-02-21T12:21:32;15.30;32.80
80695;DHT22;70059;42.702;23.312;2024-02-21T12:24:21;15.30;33.80
80695;DHT22;70059;42.702;23.312;2024-02-21T12:26:48;15.20;33.70
80695;DHT22;70059;42.702;23.312;2024-02-21T12:29:14;15.20;33.80
80695;DHT22;70059;42.702;23.312;2024-02-21T12:31:40;14.90;33.30
80695;DHT22;70059;42.702;23.312;2024-02-21T12:34:06;14.30;34.80
80695;DHT22;70059;42.702;23.312;2024-02-21T12:36:32;14.10;35.40
80695;DHT22;70059;42.702;23.312;2024-02-21T12:39:01;14.30;35.40
80695;DHT22;70059;42.702;23.312;2024-02-21T12:41:28;14.40;35.00
80695;DHT22;70059;42.702;23.312;2024-02-21T12:43:55;14.60;35.00
80695;DHT22;70059;42.702;23.312;2024-02-21T12:46:22;14.70;35.40
80695;DHT22;70059;42.702;23.312;2024-02-21T12:48:48;14.80;35.30
80695;DHT22;70059;42.702;23.312;2024-02-21T12:51:13;14.70;36.10
80695;DHT22;70059;42.702;23.312;2024-02-21T12:53:40;14.70;36.50
80695;DHT22;70059;42.702;23.312;2024-02-21T12:56:06;15.00;36.70
80695;DHT22;70059;42.702;23.312;2024-02-21T12:58:33;15.10;37.10
80695;DHT22;70059;42.702;23.312;2024-02-21T13:00:59;15.20;36.90
80695;DHT22;70059;42.702;23.312;2024-02-21T13:03:25;15.20;36.50
80695;DHT22;70059;42.702;23.312;2024-02-21T13:05:51;15.00;37.30
80695;DHT22;70059;42.702;23.312;2024-02-21T13:08:18;15.10;37.20
80695;DHT22;70059;42.702;23.312;2024-02-21T13:10:48;15.20;36.40
80695;DHT22;70059;42.702;23.312;2024-02-21T13:13:14;15.20;36.30
80695;DHT22;70059;42.702;23.312;2024-02-21T13:15:40;15.40;36.50
80695;DHT22;70059;42.702;23.312;2024-02-21T13:18:08;15.60;36.10
80695;DHT22;70059;42.702;23.312;2024-02-21T13:20:35;15.90;36.00
80695;DHT22;70059;42.702;23.312;2024-02-21T13:23:03;16.20;35.60
80695;DHT22;70059;42.702;23.312;2024-02-21T13:25:42;16.50;34.70
80695;DHT22;70059;42.702;23.312;2024-02-21T13:28:10;16.80;32.90
80695;DHT22;70059;42.702;23.312;2024-02-21T13:30:37;17.10;32.30
80695;DHT22;70059;42.702;23.312;2024-02-21T13:33:03;17.10;32.00
80695;DHT22;70059;42.702;23.312;2024-02-21T13:35:29;16.90;32.40
80695;DHT22;70059;42.702;23.312;2024-02-21T13:37:54;16.90;32.50
80695;DHT22;70059;42.702;23.312;2024-02-21T13:40:20;16.50;32.30
80695;DHT22;70059;42.702;23.312;2024-02-21T13:42:46;16.50;32.60
80695;DHT22;70059;42.702;23.312;2024-02-21T13:45:12;16.50;33.20
80695;DHT22;70059;42.702;23.312;2024-02-21T13:47:37;16.40;33.60
80695;DHT22;70059;42.702;23.312;2024-02-21T13:50:05;16.10;33.70
80695;DHT22;70059;42.702;23.312;2024-02-21T13:52:34;15.60;34.60
80695;DHT22;70059;42.702;23.312;2024-02-21T13:55:05;15.30;35.70
80695;DHT22;70059;42.702;23.312;2024-02-21T13:57:36;15.50;36.00
80695;DHT22;70059;42.702;23.312;2024-02-21T14:00:26;15.80;35.60
80695;DHT22;70059;42.702;23.312;2024-02-21T14:02:55;15.70;35.70
80695;DHT22;70059;42.702;23.312;2024-02-21T14:05:23;15.60;36.40
80695;DHT22;70059;42.702;23.312;2024-02-21T14:07:50;15.50;36.70
80695;DHT22;70059;42.702;23.312;2024-02-21T14:10:16;15.30;37.20
80695;DHT22;70059;42.702;23.312;2024-02-21T14:12:41;15.10;37.70
80695;DHT22;70059;42.702;23.312;2024-02-21T14:15:10;15.00;38.00
80695;DHT22;70059;42.702;23.312;2024-02-21T14:17:36;15.10;37.80
80695;DHT22;70059;42.702;23.312;2024-02-21T14:20:02;15.30;37.20
80695;DHT22;70059;42.702;23.312;2024-02-21T14:22:30;15.20;36.70
80695;DHT22;70059;42.702;23.312;2024-02-21T14:24:56;15.10;37.30
80695;DHT22;70059;42.702;23.312;2024-02-21T14:27:22;14.90;37.60
80695;DHT22;70059;42.702;23.312;2024-02-21T14:29:48;14.70;37.60
80695;DHT22;70059;42.702;23.312;2024-02-21T14:32:14;14.60;37.90
80695;DHT22;70059;42.702;23.312;2024-02-21T14:34:41;14.50;38.10
80695;DHT22;70059;42.702;23.312;2024-02-21T14:37:06;14.40;38.50
80695;DHT22;70059;42.702;23.312;2024-02-21T14:39:32;14.20;39.90
80695;DHT22;70059;42.702;23.312;2024-02-21T14:42:01;14.10;39.90
80695;DHT22;70059;42.702;23.312;2024-02-21T14:44:28;14.10;40.10
80695;DHT22;70059;42.702;23.312;2024-02-21T14:46:54;14.00;40.90
80695;DHT22;70059;42.702;23.312;2024-02-21T14:49:19;13.80;41.20
80695;DHT22;70059;42.702;23.312;2024-02-21T14:51:47;13.70;41.60
80695;DHT22;70059;42.702;23.312;2024-02-21T14:54:13;13.60;41.80
80695;DHT22;70059;42.702;23.312;2024-02-21T14:56:39;13.50;42.40
80695;DHT22;70059;42.702;23.312;2024-02-21T14:59:05;13.30;42.40
80695;DHT22;70059;42.702;23.312;2024-02-21T15:01:38;13.20;43.00
80695;DHT22;70059;42.702;23.312;2024-02-21T15:04:07;13.10;43.60
80695;DHT22;70059;42.702;23.312;2024-02-21T15:06:34;13.00;44.40
80695;DHT22;70059;42.702;23.312;2024-02-21T15:09:04;12.80;44.10
80695;DHT22;70059;42.702;23.312;2024-02-21T15:11:31;12.70;44.90
80695;DHT22;70059;42.702;23.312;2024-02-21T15:13:57;13.30;45.40
80695;DHT22;70059;42.702;23.312;2024-02-21T15:16:23;13.20;42.90
80695;DHT22;70059;42.702;23.312;2024-02-21T15:18:50;13.10;43.40
80695;DHT22;70059;42.702;23.312;2024-02-21T15:21:16;13.10;43.50
80695;DHT22;70059;42.702;23.312;2024-02-21T15:23:42;12.80;44.20
80695;DHT22;70059;42.702;23.312;2024-02-21T15:26:08;12.60;45.60
80695;DHT22;70059;42.702;23.312;2024-02-21T15:28:33;12.50;45.50
80695;DHT22;70059;42.702;23.312;2024-02-21T15:31:02;12.20;46.10
80695;DHT22;70059;42.702;23.312;2024-02-21T15:33:30;12.00;46.70
80695;DHT22;70059;42.702;23.312;2024-02-21T15:36:03;12.00;47.20
80695;DHT22;70059;42.702;23.312;2024-02-21T15:38:29;12.00;47.30
80695;DHT22;70059;42.702;23.312;2024-02-21T15:41:03;11.90;47.40
80695;DHT22;70059;42.702;23.312;2024-02-21T15:43:32;12.70;50.20
80695;DHT22;70059;42.702;23.312;2024-02-21T15:45:57;13.00;45.10
80695;DHT22;70059;42.702;23.312;2024-02-21T15:48:29;12.80;45.20
80695;DHT22;70059;42.702;23.312;2024-02-21T15:50:56;12.50;45.80